createdAt,value
2019-04-27T00:00:57.187Z,99489.78
2019-04-27T00:06:17.682Z,99491.02
2019-04-27T00:11:45.457Z,99490.70
2019-04-27T00:17:08.601Z,99489.87
2019-04-27T00:22:28.773Z,99490.37
2019-04-27T00:27:47.465Z,99480.52
2019-04-27T00:33:06.135Z,99467.14
2019-04-27T00:38:35.138Z,99462.64
2019-04-27T00:43:53.781Z,99463.06
2019-04-27T00:49:13.741Z,99452.16
2019-04-27T00:54:34.013Z,99451.42
2019-04-27T00:59:59.940Z,99452.14
2019-04-27T01:05:23.160Z,99449.10
2019-04-27T01:10:43.506Z,99439.84
2019-04-27T01:16:02.318Z,99441.97
2019-04-27T01:21:20.873Z,99433.09
2019-04-27T01:27:00.062Z,99423.42
2019-04-27T01:32:20.663Z,99419.34
2019-04-27T01:37:39.267Z,99417.92
2019-04-27T01:42:58.837Z,99414.52
2019-04-27T01:48:23.675Z,99406.92
2019-04-27T01:53:39.044Z,99401.53
2019-04-27T01:59:01.467Z,99397.92
2019-04-27T02:04:34.315Z,99391.76
2019-04-27T02:09:52.796Z,99383.18
2019-04-27T02:15:11.627Z,99397.83
2019-04-27T02:20:30.249Z,99388.73
2019-04-27T02:25:49.702Z,99384.06
2019-04-27T02:31:13.092Z,99374.50
2019-04-27T02:36:31.783Z,99371.41
2019-04-27T02:41:51.941Z,99368.73
2019-04-27T02:47:10.906Z,99371.85
2019-04-27T02:52:34.000Z,99363.80
2019-04-27T02:57:52.547Z,99355.98
2019-04-27T03:03:12.823Z,99352.13
2019-04-27T03:08:31.440Z,99348.92
2019-04-27T03:14:15.094Z,99350.89
2019-04-27T03:19:32.668Z,99345.53
2019-04-27T03:25:00.003Z,99339.45
2019-04-27T03:30:22.619Z,99329.36
2019-04-27T03:35:43.120Z,99327.70
2019-04-27T03:41:00.519Z,99312.58
2019-04-27T03:46:20.490Z,99315.20
2019-04-27T03:51:40.972Z,99308.55
2019-04-27T03:57:02.412Z,99300.64
2019-04-27T04:02:21.201Z,99299.45
2019-04-27T04:07:40.502Z,99297.23
2019-04-27T04:13:01.689Z,99288.28
2019-04-27T04:23:41.929Z,99288.73
2019-04-27T04:29:00.542Z,99282.06
2019-04-27T04:34:19.942Z,99272.01
2019-04-27T04:39:40.311Z,99270.59
2019-04-27T04:45:06.875Z,99259.54
2019-04-27T04:50:25.458Z,99268.31
2019-04-27T04:55:44.068Z,99278.84
2019-04-27T05:01:02.700Z,99274.71
2019-04-27T05:06:21.310Z,99283.60
2019-04-27T05:11:39.931Z,99297.93
2019-04-27T05:16:59.306Z,99299.69
2019-04-27T05:22:19.429Z,99276.52
2019-04-27T05:27:38.971Z,99276.52
2019-04-27T05:32:58.651Z,99295.47
2019-04-27T05:38:19.130Z,99287.69
2019-04-27T05:43:45.253Z,99289.36
2019-04-27T05:49:06.267Z,99292.86
2019-04-27T05:54:25.600Z,99292.20
2019-04-27T05:59:44.160Z,99291.38
2019-04-27T06:05:02.861Z,99283.45
2019-04-27T06:10:21.454Z,99281.41
2019-04-27T06:15:40.286Z,99276.00
2019-04-27T06:20:59.859Z,99267.55
2019-04-27T06:26:20.142Z,99262.00
2019-04-27T06:31:39.652Z,99255.05
2019-04-27T06:36:59.967Z,99256.55
2019-04-27T06:42:20.673Z,99259.84
2019-04-27T06:47:39.691Z,99269.91
2019-04-27T06:52:59.192Z,99250.75
2019-04-27T06:58:19.903Z,99246.39
2019-04-27T07:03:39.550Z,99239.83
2019-04-27T07:08:59.747Z,99241.88
2019-04-27T07:14:19.667Z,99249.89
2019-04-27T07:19:39.707Z,99250.32
2019-04-27T07:24:59.137Z,99249.28
2019-04-27T07:30:18.976Z,99253.59
2019-04-27T07:35:39.288Z,99253.81
2019-04-27T07:40:58.753Z,99247.42
2019-04-27T07:46:18.514Z,99242.83
2019-04-27T07:51:49.042Z,99246.78
2019-04-27T07:57:09.721Z,99247.05
2019-04-27T08:02:32.048Z,99240.79
2019-04-27T08:07:50.642Z,99241.33
2019-04-27T08:13:09.637Z,99222.96
2019-04-27T08:18:29.917Z,99226.84
2019-04-27T08:23:49.044Z,99211.13
2019-04-27T08:29:25.727Z,99217.00
2019-04-27T08:34:44.339Z,99226.08
2019-04-27T08:40:03.246Z,99211.41
2019-04-27T08:45:21.719Z,99207.59
2019-04-27T08:50:42.062Z,99214.95
2019-04-27T08:56:00.497Z,99203.06
2019-04-27T09:01:20.796Z,99203.16
2019-04-27T09:06:41.167Z,99192.91
2019-04-27T09:12:06.842Z,99197.23
2019-04-27T09:17:31.051Z,99204.47
2019-04-27T09:22:49.799Z,99205.16
2019-04-27T09:28:08.825Z,99203.37
2019-04-27T09:33:27.495Z,99199.02
2019-04-27T09:38:46.538Z,99185.16
2019-04-27T09:44:05.881Z,99182.28
2019-04-27T09:49:26.137Z,99169.42
2019-04-27T09:54:45.153Z,99166.03
2019-04-27T10:00:06.382Z,99151.00
2019-04-27T10:05:26.290Z,99157.06
2019-04-27T10:10:45.970Z,99167.60
2019-04-27T10:16:05.879Z,99180.48
2019-04-27T10:21:26.308Z,99214.22
2019-04-27T10:26:44.766Z,99210.61
2019-04-27T10:32:03.423Z,99220.84
2019-04-27T10:37:35.349Z,99218.41
2019-04-27T10:42:56.065Z,99224.68
2019-04-27T10:48:16.391Z,99231.89
2019-04-27T10:53:38.957Z,99241.04
2019-04-27T10:58:57.828Z,99237.81
2019-04-27T11:04:20.835Z,99242.30
2019-04-27T11:09:42.216Z,99240.79
2019-04-27T11:15:02.391Z,99233.22
2019-04-27T11:20:21.138Z,99237.94
2019-04-27T11:25:39.744Z,99242.16
2019-04-27T11:30:58.416Z,99246.84
2019-04-27T11:36:25.569Z,99247.96
2019-04-27T11:41:44.313Z,99254.52
2019-04-27T11:47:03.032Z,99275.30
2019-04-27T11:52:21.572Z,99287.56
2019-04-27T11:57:40.199Z,99284.94
2019-04-27T12:02:59.831Z,99287.27
2019-04-27T12:08:19.036Z,99282.66
2019-04-27T12:13:38.149Z,99287.13
2019-04-27T12:18:56.827Z,99295.30
2019-04-27T12:24:16.140Z,99286.80
2019-04-27T12:29:55.727Z,99282.99
2019-04-27T12:35:14.464Z,99262.55
2019-04-27T12:40:33.012Z,99251.55
2019-04-27T12:45:51.564Z,99253.27
2019-04-27T12:51:10.282Z,99251.76
2019-04-27T12:56:36.264Z,99258.90
2019-04-27T13:01:56.125Z,99249.73
2019-04-27T13:07:15.985Z,99230.65
2019-04-27T13:12:35.776Z,99237.60
2019-04-27T13:17:55.574Z,99230.97
2019-04-27T13:23:15.451Z,99233.73
2019-04-27T13:28:35.795Z,99229.20
2019-04-27T13:33:55.922Z,99242.38
2019-04-27T13:39:15.807Z,99232.63
2019-04-27T13:44:35.966Z,99249.56
2019-04-27T13:50:06.476Z,99236.39
2019-04-27T13:55:25.077Z,99237.09
2019-04-27T14:00:43.644Z,99242.38
2019-04-27T14:06:02.270Z,99235.08
2019-04-27T14:11:21.273Z,99245.00
2019-04-27T14:16:39.869Z,99238.06
2019-04-27T14:21:59.121Z,99235.20
2019-04-27T14:27:19.026Z,99226.43
2019-04-27T14:32:38.749Z,99219.66
2019-04-27T14:37:58.152Z,99224.29
2019-04-27T14:43:16.761Z,99232.57
2019-04-27T14:48:36.931Z,99224.08
2019-04-27T14:53:55.481Z,99214.92
2019-04-27T14:59:14.026Z,99203.02
2019-04-27T15:04:33.643Z,99204.71
2019-04-27T15:09:56.152Z,99206.46
2019-04-27T15:15:12.934Z,99212.56
2019-04-27T15:20:43.937Z,99227.62
2019-04-27T15:26:02.416Z,99223.87
2019-04-27T15:31:26.689Z,99226.11
2019-04-27T15:36:47.606Z,99223.04
2019-04-27T15:42:24.185Z,99239.84
2019-04-27T15:47:49.272Z,99261.95
2019-04-27T15:53:09.870Z,99257.61
2019-04-27T15:58:25.262Z,99263.83
2019-04-27T16:03:44.659Z,99255.89
2019-04-27T16:09:07.669Z,99269.72
2019-04-27T16:14:28.911Z,99275.53
2019-04-27T16:19:50.305Z,99284.80
2019-04-27T16:25:08.369Z,99280.08
2019-04-27T16:30:28.766Z,99285.70
2019-04-27T16:35:48.801Z,99284.72
2019-04-27T16:41:08.208Z,99299.34
2019-04-27T16:46:28.557Z,99314.53
2019-04-27T16:51:49.225Z,99319.11
2019-04-27T16:57:07.899Z,99326.00
2019-04-27T17:02:28.148Z,99324.27
2019-04-27T17:07:46.770Z,99319.52
2019-04-27T17:13:10.626Z,99325.33
2019-04-27T17:18:44.402Z,99323.36
2019-04-27T17:24:03.983Z,99330.84
2019-04-27T17:29:22.929Z,99335.58
2019-04-27T17:34:41.644Z,99353.91
2019-04-27T17:40:00.899Z,99359.25
2019-04-27T17:45:21.667Z,99359.90
2019-04-27T17:50:39.884Z,99363.31
2019-04-27T17:56:02.911Z,99376.00
2019-04-27T18:01:23.382Z,99385.17
2019-04-27T18:06:42.514Z,99403.44
2019-04-27T18:12:00.172Z,99419.44
2019-04-27T18:17:19.882Z,99431.73
2019-04-27T18:22:40.319Z,99435.98
2019-04-27T18:28:03.192Z,99449.58
2019-04-27T18:33:23.420Z,99447.72
2019-04-27T18:38:42.064Z,99450.89
2019-04-27T18:44:02.220Z,99445.44
2019-04-27T18:49:30.270Z,99441.55
2019-04-27T18:54:48.697Z,99448.95
2019-04-27T19:00:10.906Z,99470.11
2019-04-27T19:05:39.906Z,99478.23
2019-04-27T19:10:51.635Z,99478.23
2019-04-27T19:16:10.258Z,99485.86
2019-04-27T19:21:29.278Z,99488.94
2019-04-27T19:26:49.588Z,99492.63
2019-04-27T19:32:10.309Z,99494.06
2019-04-27T19:37:28.991Z,99510.22
2019-04-27T19:42:54.220Z,99511.80
2019-04-27T19:48:14.319Z,99512.53
2019-04-27T19:53:32.867Z,99518.24
2019-04-27T19:58:53.131Z,99524.98
2019-04-27T20:04:16.078Z,99521.77
2019-04-27T20:09:39.313Z,99525.78
2019-04-27T20:14:58.022Z,99524.34
2019-04-27T20:20:16.702Z,99529.57
2019-04-27T20:25:35.859Z,99527.98
2019-04-27T20:30:54.515Z,99531.16
2019-04-27T20:36:13.064Z,99530.95
2019-04-27T20:41:31.947Z,99536.66
2019-04-27T20:46:51.346Z,99536.17
2019-04-27T20:52:14.844Z,99540.56
2019-04-27T20:57:33.384Z,99549.53
2019-04-27T21:03:01.658Z,99542.50
2019-04-27T21:08:21.790Z,99544.14
2019-04-27T21:13:40.420Z,99546.34
2019-04-27T21:18:59.098Z,99551.38
2019-04-27T21:24:17.658Z,99550.41
2019-04-27T21:29:36.127Z,99554.38
2019-04-27T21:34:54.827Z,99559.03
2019-04-27T21:40:15.284Z,99555.78
2019-04-27T21:45:33.889Z,99556.84
2019-04-27T21:50:52.503Z,99556.95
2019-04-27T21:56:12.201Z,99559.97
2019-04-27T22:01:32.272Z,99565.75
2019-04-27T22:06:51.290Z,99567.95
2019-04-27T22:12:11.229Z,99569.86
2019-04-27T22:17:30.122Z,99574.87
2019-04-27T22:22:51.626Z,99575.58
2019-04-27T22:28:11.749Z,99580.59
2019-04-27T22:33:30.743Z,99584.88
2019-04-27T22:38:51.411Z,99591.70
2019-04-27T22:44:26.365Z,99596.87
2019-04-27T22:49:44.913Z,99603.53
2019-04-27T22:55:03.703Z,99599.89
2019-04-27T23:00:23.964Z,99604.96
2019-04-27T23:05:43.028Z,99604.52
2019-04-27T23:11:02.602Z,99603.73
2019-04-27T23:16:22.891Z,99601.45
2019-04-27T23:21:41.499Z,99601.45
2019-04-27T23:27:03.394Z,99606.17
2019-04-27T23:32:31.649Z,99611.65
2019-04-27T23:37:50.771Z,99613.08
2019-04-27T23:43:11.478Z,99611.69
2019-04-27T23:48:32.214Z,99616.92
2019-04-27T23:53:51.703Z,99619.02
2019-04-27T23:59:10.175Z,99610.94
